모두
Moore County Airport (Dumas, TX) DUX 기상
|
Dumas, TX (KDUX)
맑은 하늘
바람이 붐 |
|
24 °C |
There is no TAF data available at DUX or any nearby airports.
최근 DUX METAR 이력
| Date | Time (CDT) | Flight Rules | Wind Dir. | Speed | Type | Height AGL (ft) | Visibility | Temp (°C) | Temp (°F) | Dew Point (°C) | Dew Point (°F) | Rel. Humid. | Pressure | Density Altitude | Remarks |
|---|---|---|---|---|---|---|---|---|---|---|---|---|---|---|---|
| 03-5월 | 12:35 | VFR | 240° | 17 kt | Clear |
10 miles | 24° | 75° | 1° | 33° | 22% | 30.04 in Hg | 5,379 ft | Wind gusting to 22 KT | |
| 03-5월 | 12:15 | VFR | 230° | 16 kt | Clear |
10 miles | 23° | 73° | 2° | 35° | 25% | 30.06 in Hg | 5,239 ft | Wind gusting to 23 KT | |
| 03-5월 | 11:55 | VFR | 230° | 18 kt | Clear |
10 miles | 22° | 71° | 3° | 37° | 29% | 30.07 in Hg | 5,109 ft | Wind gusting to 27 KT | |
| 03-5월 | 11:15 | VFR | 220° | 19 kt | Clear |
10 miles | 21° | 69° | 4° | 39° | 33% | 30.08 in Hg | 4,979 ft | Wind gusting to 26 KT | |
| 03-5월 | 10:55 | VFR | 220° | 21 kt | Clear |
10 miles | 20° | 68° | 5° | 41° | 37% | 30.09 in Hg | 4,849 ft | Wind gusting to 26 KT | |
| 03-5월 | 10:15 | VFR | 240° | 20 kt | Clear |
10 miles | 18° | 64° | 6° | 42° | 45% | 30.10 in Hg | 4,599 ft | Wind gusting to 27 KT | |
| 03-5월 | 09:55 | VFR | 240° | 17 kt | Clear |
10 miles | 17° | 62° | 6° | 42° | 48% | 30.10 in Hg | 4,479 ft | Wind gusting to 25 KT | |
| 03-5월 | 09:15 | VFR | 230° | 18 kt | Clear |
10 miles | 16° | 60° | 7° | 44° | 55% | 30.11 in Hg | 4,349 ft | ||
| 03-5월 | 08:55 | VFR | 240° | 17 kt | Clear |
10 miles | 15° | 59° | 7° | 44° | 59% | 30.11 in Hg | 4,229 ft | Wind gusting to 21 KT | |
| 03-5월 | 08:15 | VFR | 240° | 13 kt | 10 miles | 11° | 51° | 6° | 42° | 71% | 30.11 in Hg | 3,749 ft | |||
| 03-5월 | 07:54 | VFR | 240° | 12 kt | 10 miles | 10° | 50° | 6° | 42° | 76% | 30.11 in Hg | 3,629 ft | |||
| 03-5월 | 07:15 | VFR | 230° | 11 kt | 10 miles | 7° | 44° | 4° | 39° | 81% | 30.10 in Hg | 3,279 ft | |||
| 03-5월 | 06:55 | VFR | 240° | 11 kt | 10 miles | 7° | 44° | 4° | 39° | 81% | 30.10 in Hg | 3,279 ft | |||
| 03-5월 | 06:35 | VFR | 240° | 11 kt | 10 miles | 8° | 46° | 4° | 39° | 76% | 30.09 in Hg | 3,409 ft | |||
| 03-5월 | 06:15 | VFR | 240° | 11 kt | 10 miles | 7° | 44° | 4° | 39° | 81% | 30.09 in Hg | 3,289 ft | |||
| 03-5월 | 05:55 | VFR | 240° | 12 kt | 10 miles | 8° | 46° | 4° | 39° | 76% | 30.10 in Hg | 3,399 ft | |||
| 03-5월 | 05:15 | VFR | 240° | 11 kt | 10 miles | 9° | 48° | 3° | 37° | 66% | 30.10 in Hg | 3,519 ft | |||
| 03-5월 | 04:55 | VFR | 240° | 11 kt | 10 miles | 8° | 46° | 3° | 37° | 71% | 30.10 in Hg | 3,399 ft | |||
| 03-5월 | 04:15 | VFR | 240° | 12 kt | 10 miles | 10° | 50° | 3° | 37° | 62% | 30.10 in Hg | 3,639 ft | |||
| 03-5월 | 03:55 | VFR | 240° | 11 kt | 10 miles | 10° | 50° | 3° | 37° | 62% | 30.10 in Hg | 3,639 ft | |||
| 03-5월 | 03:15 | VFR | 250° | 10 kt | 10 miles | 10° | 50° | 1° | 33° | 53% | 30.11 in Hg | 3,629 ft | |||
| 03-5월 | 02:55 | VFR | 250° | 11 kt | 10 miles | 11° | 51° | 1° | 33° | 50% | 30.11 in Hg | 3,749 ft | |||
| 03-5월 | 02:15 | VFR | 240° | 13 kt | 10 miles | 11° | 51° | -1° | 30° | 43% | 30.11 in Hg | 3,749 ft | |||
| 03-5월 | 01:55 | VFR | 240° | 13 kt | 10 miles | 11° | 51° | -2° | 28° | 40% | 30.12 in Hg | 3,739 ft |
로그인
| 귀하의 브라우저는 지원되지 않습니다.. 브라우저를 업그레이드하세요 |
